Time;durP1;ratioP1;P1;durP2;ratioP2;P2;SDS_P1;SDS_P2;PMS_P1;PMS_P2;Temp;Humidity;BMP_temperature;BMP_pressure;BME280_temperature;BME280_humidity;BME280_pressure;Samples;Min_cycle;Max_cycle;Signal;HPM_P1;HPM_P2
2021/09/01 00:01:24;;;;;;;3.70;2.08;;;18.40;67.40;;;;;;5113280;28;20122;-67
2021/09/01 00:03:52;;;;;;;3.50;2.33;;;18.30;67.50;;;;;;5113395;28;20035;-64
2021/09/01 00:06:23;;;;;;;7.80;2.03;;;18.40;67.50;;;;;;5112785;28;20073;-61
2021/09/01 00:08:57;;;;;;;6.53;2.60;;;18.70;64.90;;;;;;5069700;28;20021;-60
2021/09/01 00:11:25;;;;;;;7.22;2.53;;;19.30;61.80;;;;;;5070682;28;20471;-60
2021/09/01 00:13:52;;;;;;;14.45;2.80;;;19.50;60.90;;;;;;5087878;28;20031;-61
2021/09/01 00:16:26;;;;;;;12.07;6.60;;;19.70;59.80;;;;;;5089359;28;20548;-63
2021/09/01 00:18:58;;;;;;;10.30;7.07;;;19.30;63.10;;;;;;5093080;28;20032;-62
2021/09/01 00:21:26;;;;;;;13.23;7.07;;;19.20;62.60;;;;;;5093412;28;20016;-68
2021/09/01 00:23:54;;;;;;;15.73;6.70;;;19.10;63.20;;;;;;5093066;28;20046;-63
2021/09/01 00:26:22;;;;;;;11.80;7.55;;;19.10;64.70;;;;;;5092813;28;20026;-62
2021/09/01 00:28:50;;;;;;;10.57;7.30;;;19.10;65.40;;;;;;5093029;28;20079;-61
2021/09/01 00:31:18;;;;;;;11.98;8.23;;;19.20;63.80;;;;;;5094124;28;20402;-63
2021/09/01 00:33:47;;;;;;;12.48;9.40;;;19.20;64.30;;;;;;5096988;28;20024;-62
2021/09/01 00:36:16;;;;;;;12.73;10.80;;;19.20;64.80;;;;;;5097121;28;20024;-62
2021/09/01 00:38:45;;;;;;;14.10;10.98;;;19.30;64.60;;;;;;5096805;28;20031;-66
2021/09/01 00:41:18;;;;;;;13.38;10.50;;;19.40;64.50;;;;;;5096243;28;20040;-63
2021/09/01 00:43:51;;;;;;;14.75;10.80;;;19.50;64.20;;;;;;5097104;28;20024;-70
2021/09/01 00:46:31;;;;;;;11.05;9.68;;;19.50;63.60;;;;;;5100108;28;20051;-62
2021/09/01 00:48:59;;;;;;;16.23;11.45;;;19.60;62.80;;;;;;5099035;28;20031;-66
2021/09/01 00:51:33;;;;;;;13.00;10.10;;;19.80;63.20;;;;;;5098603;28;20016;-73
2021/09/01 00:54:00;;;;;;;16.25;10.90;;;19.70;62.90;;;;;;5099834;28;20521;-64
2021/09/01 00:56:28;;;;;;;11.27;9.27;;;19.80;62.60;;;;;;5099141;28;20024;-68
2021/09/01 00:58:55;;;;;;;13.40;10.75;;;19.90;62.20;;;;;;5096742;28;20024;-63
2021/09/01 01:01:23;;;;;;;18.30;9.98;;;20.00;61.60;;;;;;5098653;28;20035;-66
2021/09/01 01:03:52;;;;;;;13.20;11.82;;;20.00;60.10;;;;;;5097882;28;20364;-58
2021/09/01 01:06:23;;;;;;;18.02;12.25;;;20.10;60.40;;;;;;5105055;28;20035;-67
2021/09/01 01:08:53;;;;;;;12.93;11.52;;;20.10;60.90;;;;;;5114013;28;20488;-65
2021/09/01 01:11:30;;;;;;;11.50;10.30;;;20.30;61.80;;;;;;5114735;28;20489;-60
2021/09/01 01:13:58;;;;;;;10.50;9.05;;;20.30;60.30;;;;;;5115020;28;20049;-67
2021/09/01 01:16:27;;;;;;;10.98;9.90;;;20.30;59.20;;;;;;5115399;28;20039;-62
2021/09/01 01:19:00;;;;;;;12.35;10.10;;;20.40;60.20;;;;;;5113124;28;20029;-60
2021/09/01 01:21:34;;;;;;;10.82;9.25;;;20.50;60.60;;;;;;5114311;28;20485;-59
2021/09/01 01:24:02;;;;;;;10.73;9.60;;;20.50;60.20;;;;;;5114695;28;20028;-59
2021/09/01 01:26:32;;;;;;;10.73;8.05;;;20.50;59.70;;;;;;5113962;28;20442;-66
2021/09/01 01:29:08;;;;;;;11.23;7.90;;;20.60;59.70;;;;;;5113845;28;20023;-60
2021/09/01 01:31:38;;;;;;;10.13;9.13;;;20.70;58.70;;;;;;5113555;28;20473;-64
2021/09/01 01:34:14;;;;;;;12.52;9.38;;;20.60;61.60;;;;;;5112497;28;20367;-61
2021/09/01 01:36:42;;;;;;;8.45;6.68;;;20.80;60.40;;;;;;5113708;28;20028;-65
2021/09/01 01:39:09;;;;;;;8.93;6.82;;;20.90;57.60;;;;;;5112363;28;20023;-68
2021/09/01 01:41:37;;;;;;;9.20;6.78;;;21.10;57.40;;;;;;5112765;28;20051;-71
2021/09/01 01:44:04;;;;;;;9.60;8.32;;;21.20;59.80;;;;;;5110745;28;20040;-72
2021/09/01 01:46:32;;;;;;;12.85;7.85;;;21.10;60.70;;;;;;5115514;28;20032;-59
2021/09/01 01:48:59;;;;;;;9.48;7.00;;;21.00;60.20;;;;;;5113670;28;20531;-69
2021/09/01 01:51:33;;;;;;;7.07;5.70;;;21.10;60.10;;;;;;5113147;28;20034;-70
2021/09/01 01:54:00;;;;;;;8.60;6.10;;;21.10;58.60;;;;;;5112461;28;20042;-62
2021/09/01 01:56:30;;;;;;;6.82;5.25;;;21.20;58.80;;;;;;5110634;28;20121;-59
2021/09/01 01:58:58;;;;;;;8.55;6.60;;;21.40;59.60;;;;;;5111762;28;20019;-60
2021/09/01 02:01:26;;;;;;;9.95;6.20;;;21.50;59.30;;;;;;5112302;28;20027;-64
2021/09/01 02:03:53;;;;;;;8.82;5.72;;;21.30;60.50;;;;;;5111621;28;20040;-63
2021/09/01 02:06:21;;;;;;;7.95;6.18;;;21.50;59.90;;;;;;5110822;28;21163;-62
2021/09/01 02:08:48;;;;;;;6.45;4.30;;;21.40;60.00;;;;;;5092776;28;20059;-64
2021/09/01 02:11:15;;;;;;;10.93;5.03;;;21.60;56.10;;;;;;5111829;28;20426;-64
2021/09/01 02:13:46;;;;;;;11.90;4.85;;;21.70;58.80;;;;;;5111945;28;20015;-63
2021/09/01 02:16:13;;;;;;;6.25;5.50;;;21.70;59.00;;;;;;5093147;28;20423;-59
2021/09/01 02:18:41;;;;;;;10.45;5.13;;;21.60;59.90;;;;;;5111479;28;20111;-63
2021/09/01 02:21:08;;;;;;;5.00;4.03;;;21.60;60.20;;;;;;5111926;28;20085;-65
2021/09/01 02:23:35;;;;;;;10.38;5.28;;;21.60;58.40;;;;;;5092266;28;20039;-63
2021/09/01 02:26:03;;;;;;;10.77;4.70;;;21.70;60.00;;;;;;5111121;28;20050;-66
2021/09/01 02:28:30;;;;;;;6.47;5.13;;;21.70;58.50;;;;;;5111210;28;20059;-59
2021/09/01 02:30:58;;;;;;;5.30;4.15;;;21.80;60.00;;;;;;5111641;28;20155;-65
2021/09/01 02:33:25;;;;;;;6.50;4.68;;;21.80;59.60;;;;;;5110996;28;20056;-62
2021/09/01 02:35:53;;;;;;;6.65;4.00;;;21.80;59.50;;;;;;5112127;28;20073;-62
2021/09/01 02:38:20;;;;;;;4.70;3.85;;;21.90;58.90;;;;;;5111054;28;20424;-62
2021/09/01 02:40:48;;;;;;;9.68;4.25;;;22.00;55.80;;;;;;5110966;28;20036;-70
2021/09/01 02:43:15;;;;;;;4.70;4.10;;;22.00;60.00;;;;;;5110930;28;20034;-63
2021/09/01 02:45:42;;;;;;;4.72;3.60;;;22.10;59.30;;;;;;5109265;28;20477;-71
2021/09/01 02:48:10;;;;;;;6.93;4.70;;;22.00;59.60;;;;;;5094605;28;20020;-64
2021/09/01 02:50:37;;;;;;;7.30;4.18;;;22.00;58.50;;;;;;5101870;28;20051;-65
2021/09/01 02:53:05;;;;;;;4.47;3.38;;;22.10;58.80;;;;;;5118514;28;20028;-69
2021/09/01 02:55:32;;;;;;;6.50;4.30;;;22.20;58.50;;;;;;5118819;28;20015;-70
2021/09/01 02:57:59;;;;;;;7.10;3.95;;;22.20;59.20;;;;;;5117003;28;20493;-65
2021/09/01 03:00:27;;;;;;;5.05;3.15;;;22.20;58.70;;;;;;5116985;28;20016;-70
2021/09/01 03:02:54;;;;;;;8.18;4.18;;;22.50;53.70;;;;;;5120028;28;20032;-67
2021/09/01 03:05:22;;;;;;;15.73;9.48;;;22.40;58.90;;;;;;5120233;28;20024;-70
2021/09/01 03:07:50;;;;;;;19.80;12.82;;;22.30;59.40;;;;;;5123657;28;20030;-72
2021/09/01 03:10:17;;;;;;;96.60;52.42;;;22.20;59.60;;;;;;5121281;28;20019;-65
2021/09/01 03:12:45;;;;;;;138.20;75.85;;;22.30;59.70;;;;;;5124733;28;20018;-72
2021/09/01 03:15:13;;;;;;;173.52;93.97;;;22.40;58.40;;;;;;5124749;28;20039;-66
2021/09/01 03:17:40;;;;;;;173.85;94.70;;;22.40;59.40;;;;;;5117179;28;20012;-62
2021/09/01 03:20:08;;;;;;;187.13;101.85;;;22.20;59.80;;;;;;5101325;28;20092;-71
2021/09/01 03:22:35;;;;;;;182.60;100.43;;;22.40;60.00;;;;;;5110101;28;20119;-70
2021/09/01 03:25:03;;;;;;;192.50;108.55;;;22.40;58.70;;;;;;5110426;28;20024;-65
2021/09/01 03:27:30;;;;;;;207.73;109.55;;;22.30;59.80;;;;;;5112664;28;20035;-65
2021/09/01 03:29:58;;;;;;;204.00;105.95;;;22.50;59.50;;;;;;5104842;28;20559;-70
2021/09/01 03:32:25;;;;;;;186.30;102.65;;;22.50;59.30;;;;;;5111587;28;20094;-71
2021/09/01 03:34:53;;;;;;;187.50;104.30;;;22.40;59.90;;;;;;5108059;28;20084;-66
2021/09/01 03:37:20;;;;;;;170.02;90.47;;;22.40;59.60;;;;;;5112255;28;20027;-67
2021/09/01 03:39:47;;;;;;;195.82;106.50;;;22.40;56.50;;;;;;5111095;28;20023;-65
2021/09/01 03:42:15;;;;;;;186.02;103.50;;;22.40;59.80;;;;;;5112152;28;20176;-61
2021/09/01 03:44:43;;;;;;;185.65;102.45;;;22.40;59.90;;;;;;5107568;28;20790;-64
2021/09/01 03:47:10;;;;;;;177.65;99.25;;;22.40;59.90;;;;;;5110299;28;20465;-68
2021/09/01 03:49:37;;;;;;;174.55;100.50;;;22.40;60.30;;;;;;5112612;28;20035;-66
2021/09/01 03:52:05;;;;;;;183.80;100.30;;;22.40;60.40;;;;;;5111690;28;20020;-70
2021/09/01 03:54:33;;;;;;;179.93;99.95;;;22.40;60.20;;;;;;5104466;28;20054;-67
2021/09/01 03:57:00;;;;;;;191.25;104.28;;;22.50;58.60;;;;;;5111626;28;20031;-70
2021/09/01 03:59:28;;;;;;;184.13;102.93;;;22.40;60.30;;;;;;5112105;28;20015;-61
2021/09/01 04:01:55;;;;;;;162.75;95.60;;;22.50;60.00;;;;;;5106399;28;20048;-68
2021/09/01 04:04:23;;;;;;;169.73;94.53;;;22.50;58.70;;;;;;5103378;28;20032;-66
2021/09/01 04:06:51;;;;;;;173.05;92.97;;;22.50;60.10;;;;;;5110204;28;20062;-65
2021/09/01 04:09:19;;;;;;;163.82;93.55;;;22.60;59.50;;;;;;5112650;28;20042;-64
2021/09/01 04:11:46;;;;;;;151.30;86.68;;;22.60;59.20;;;;;;5106449;28;20671;-66
2021/09/01 04:14:13;;;;;;;176.07;100.88;;;22.60;58.80;;;;;;5108719;28;20027;-65
2021/09/01 04:16:41;;;;;;;173.43;98.38;;;22.50;60.30;;;;;;5105808;28;20076;-64
2021/09/01 04:19:08;;;;;;;162.70;95.13;;;22.60;60.00;;;;;;5111440;28;20032;-65
2021/09/01 04:21:36;;;;;;;170.63;98.88;;;22.60;60.10;;;;;;5109507;28;20114;-65
2021/09/01 04:24:04;;;;;;;163.00;94.90;;;22.50;60.10;;;;;;5110920;28;20032;-63
2021/09/01 04:26:31;;;;;;;168.00;93.63;;;22.50;60.50;;;;;;5101127;28;20057;-67
2021/09/01 04:28:59;;;;;;;154.23;85.35;;;22.50;60.70;;;;;;5107593;28;20409;-65
2021/09/01 04:31:26;;;;;;;120.68;71.47;;;22.70;59.60;;;;;;5106700;28;20024;-68
2021/09/01 04:33:54;;;;;;;164.75;94.90;;;22.80;58.60;;;;;;5111617;28;20030;-65
2021/09/01 04:36:21;;;;;;;148.23;83.35;;;22.70;60.20;;;;;;5086003;28;20450;-69
2021/09/01 04:38:48;;;;;;;154.05;90.15;;;22.70;57.40;;;;;;5111723;28;20494;-68
2021/09/01 04:41:16;;;;;;;159.00;89.97;;;22.70;60.40;;;;;;5109995;28;20381;-67
2021/09/01 04:43:43;;;;;;;140.20;81.10;;;22.60;60.70;;;;;;5110982;28;20077;-65
2021/09/01 04:46:11;;;;;;;147.70;89.35;;;22.80;59.20;;;;;;5100386;28;20181;-63
2021/09/01 04:48:38;;;;;;;142.75;86.97;;;22.90;59.60;;;;;;5111306;28;20024;-65
2021/09/01 04:51:05;;;;;;;144.70;86.30;;;22.80;60.10;;;;;;5105920;28;20424;-71
2021/09/01 04:53:33;;;;;;;152.80;86.05;;;22.70;60.20;;;;;;5110960;28;20043;-64
2021/09/01 04:56:00;;;;;;;142.57;86.47;;;23.00;59.70;;;;;;5095239;28;20047;-67
2021/09/01 04:58:28;;;;;;;135.20;80.68;;;22.90;60.00;;;;;;5090289;28;20092;-72
2021/09/01 05:00:55;;;;;;;109.85;67.30;;;23.00;59.30;;;;;;5087760;28;20492;-67
2021/09/01 05:03:23;;;;;;;134.45;82.38;;;23.20;57.00;;;;;;5104593;28;20036;-63
2021/09/01 05:05:50;;;;;;;129.02;74.72;;;23.10;59.20;;;;;;5105034;28;20032;-66
2021/09/01 05:08:18;;;;;;;127.93;75.82;;;23.10;58.40;;;;;;5106515;28;20069;-70
2021/09/01 05:10:45;;;;;;;143.00;84.47;;;23.10;59.10;;;;;;5091414;28;20020;-64
2021/09/01 05:13:13;;;;;;;136.63;83.18;;;22.90;59.80;;;;;;5096063;28;20936;-72
2021/09/01 05:15:41;;;;;;;109.05;63.03;;;22.90;59.90;;;;;;5079380;28;20035;-71
2021/09/01 05:18:08;;;;;;;120.05;73.88;;;23.20;58.40;;;;;;5102863;28;20386;-63
2021/09/01 05:20:38;;;;;;;115.10;67.47;;;23.20;59.00;;;;;;5086507;28;20031;-64
2021/09/01 05:23:10;;;;;;;126.22;75.43;;;23.20;57.90;;;;;;5110924;28;20521;-64
2021/09/01 05:25:49;;;;;;;120.47;71.78;;;23.10;59.00;;;;;;5114332;28;20030;-62
2021/09/01 05:28:17;;;;;;;126.88;75.20;;;23.20;56.60;;;;;;5101774;28;20035;-64
2021/09/01 05:30:49;;;;;;;120.70;72.47;;;23.20;59.10;;;;;;5089684;28;20016;-64
2021/09/01 05:33:19;;;;;;;124.32;73.63;;;23.10;59.40;;;;;;5114287;28;20016;-65
2021/09/01 05:35:49;;;;;;;119.88;70.35;;;23.00;59.60;;;;;;5114982;28;20024;-65
2021/09/01 05:38:20;;;;;;;115.63;69.68;;;23.10;59.10;;;;;;5110891;28;20019;-67
2021/09/01 05:40:51;;;;;;;116.45;70.95;;;23.10;57.30;;;;;;5104920;28;20116;-63
2021/09/01 05:43:21;;;;;;;94.63;58.25;;;23.10;59.10;;;;;;5111729;28;20028;-66
2021/09/01 05:45:50;;;;;;;97.63;63.92;;;23.00;56.20;;;;;;5115359;28;20030;-62
2021/09/01 05:48:20;;;;;;;89.78;55.50;;;23.10;59.20;;;;;;5115629;28;20126;-64
2021/09/01 05:50:55;;;;;;;107.93;65.90;;;23.10;58.40;;;;;;5110606;28;20046;-74
2021/09/01 05:53:24;;;;;;;107.20;66.50;;;23.00;59.50;;;;;;5107892;28;20019;-70
2021/09/01 05:55:53;;;;;;;102.50;60.58;;;23.00;59.50;;;;;;5101947;28;20477;-72
2021/09/01 05:58:22;;;;;;;84.00;48.55;;;23.10;58.10;;;;;;5091914;28;20032;-69
2021/09/01 06:00:55;;;;;;;92.18;56.30;;;23.20;55.70;;;;;;5110615;28;20019;-63
2021/09/01 06:03:30;;;;;;;104.18;63.60;;;23.10;58.70;;;;;;5110973;28;20023;-63
2021/09/01 06:06:00;;;;;;;99.40;63.42;;;22.90;59.50;;;;;;5114933;28;20032;-68
2021/09/01 06:08:32;;;;;;;92.47;55.20;;;22.90;58.40;;;;;;5114459;28;20024;-67
2021/09/01 06:11:02;;;;;;;77.03;44.63;;;23.00;58.20;;;;;;5106915;28;20032;-54
2021/09/01 06:13:37;;;;;;;72.85;45.15;;;23.20;55.00;;;;;;5107921;28;20370;-54
2021/09/01 06:16:05;;;;;;;73.20;44.47;;;23.30;54.90;;;;;;5113963;28;20032;-53
2021/09/01 06:18:33;;;;;;;50.03;35.75;;;23.30;55.10;;;;;;5113661;28;20466;-49
2021/09/01 06:21:00;;;;;;;68.57;42.33;;;23.30;53.80;;;;;;5105317;28;20043;-54
2021/09/01 06:23:28;;;;;;;52.75;31.60;;;23.30;54.90;;;;;;5110463;28;20067;-48
2021/09/01 06:25:58;;;;;;;45.80;30.63;;;23.30;52.30;;;;;;5114042;28;20026;-52
2021/09/01 06:28:26;;;;;;;39.90;21.55;;;23.20;53.50;;;;;;5094571;28;20031;-53
2021/09/01 06:30:53;;;;;;;56.78;33.97;;;23.30;53.00;;;;;;5104434;28;20073;-54
2021/09/01 06:33:20;;;;;;;53.67;34.67;;;23.40;54.00;;;;;;5109099;28;20038;-72
2021/09/01 06:35:51;;;;;;;55.03;32.38;;;22.80;56.20;;;;;;5114798;28;20055;-61
2021/09/01 06:38:19;;;;;;;43.97;26.83;;;22.60;56.50;;;;;;5114160;28;20028;-64
2021/09/01 06:40:46;;;;;;;45.00;26.83;;;22.40;54.90;;;;;;5100340;28;20036;-60
2021/09/01 06:43:17;;;;;;;42.28;27.75;;;22.30;56.40;;;;;;5097594;28;20061;-67
2021/09/01 06:45:46;;;;;;;52.10;33.47;;;22.10;57.00;;;;;;5108014;28;20028;-63
2021/09/01 06:48:15;;;;;;;47.30;29.45;;;22.00;58.40;;;;;;5086228;28;20020;-64
2021/09/01 06:50:43;;;;;;;54.10;33.05;;;22.00;58.90;;;;;;5107608;28;20040;-62
2021/09/01 06:53:12;;;;;;;49.20;31.58;;;22.00;60.10;;;;;;5099717;28;20030;-65
2021/09/01 06:55:40;;;;;;;54.58;35.22;;;21.90;60.00;;;;;;5089280;28;20080;-70
2021/09/01 06:58:18;;;;;;;45.00;26.98;;;21.90;60.20;;;;;;5108575;28;20015;-68
2021/09/01 07:00:47;;;;;;;45.95;28.38;;;21.90;58.70;;;;;;5105904;28;21143;-62
2021/09/01 07:03:14;;;;;;;37.13;23.25;;;21.90;59.30;;;;;;5100905;28;20041;-62
2021/09/01 07:05:42;;;;;;;44.35;25.90;;;21.90;58.00;;;;;;5107667;28;20032;-60
2021/09/01 07:08:15;;;;;;;41.28;24.63;;;21.90;58.40;;;;;;5111434;27;20374;-67
2021/09/01 07:10:44;;;;;;;45.42;31.27;;;21.90;59.00;;;;;;5107844;27;20020;-63
2021/09/01 07:13:13;;;;;;;40.28;25.08;;;21.80;59.90;;;;;;5099724;28;20052;-62
2021/09/01 07:15:53;;;;;;;33.20;21.98;;;21.80;58.60;;;;;;5089710;28;20046;-63
2021/09/01 07:18:21;;;;;;;46.15;30.02;;;21.60;60.10;;;;;;5104498;28;20035;-66
2021/09/01 07:20:48;;;;;;;39.22;23.90;;;21.50;61.00;;;;;;5099852;28;20416;-69
2021/09/01 07:23:16;;;;;;;44.30;28.67;;;21.40;61.10;;;;;;5099328;28;20093;-64
2021/09/01 07:26:12;;;;;;;41.22;24.50;;;21.30;62.50;;;;;;5108429;28;20102;-60
2021/09/01 07:28:40;;;;;;;43.78;26.10;;;21.10;62.40;;;;;;5087692;28;20502;-65
2021/09/01 07:31:28;;;;;;;32.08;19.45;;;21.10;63.30;;;;;;5086530;28;21080;-65
2021/09/01 07:33:55;;;;;;;38.33;22.80;;;21.00;61.90;;;;;;5106856;27;20028;-64
2021/09/01 07:36:22;;;;;;;43.55;26.50;;;21.00;64.00;;;;;;5107064;28;20097;-60
2021/09/01 07:38:50;;;;;;;40.97;26.25;;;20.70;65.50;;;;;;5096475;28;20024;-64
2021/09/01 07:41:17;;;;;;;40.88;23.27;;;20.70;66.10;;;;;;5094551;28;20039;-60
2021/09/01 07:43:45;;;;;;;36.90;22.42;;;20.60;65.50;;;;;;5105700;28;20069;-71
2021/09/01 07:46:12;;;;;;;38.45;25.15;;;20.60;66.00;;;;;;5104338;28;20071;-62
2021/09/01 07:48:39;;;;;;;33.50;19.60;;;20.50;66.50;;;;;;5106716;28;20401;-66
2021/09/01 07:51:07;;;;;;;26.83;18.00;;;20.60;66.40;;;;;;5102980;28;20073;-66
2021/09/01 07:53:34;;;;;;;32.22;20.63;;;20.50;66.40;;;;;;5107549;28;20047;-65
2021/09/01 07:56:02;;;;;;;34.42;21.75;;;20.50;66.50;;;;;;5101171;28;20554;-64
2021/09/01 07:58:29;;;;;;;35.03;17.95;;;20.50;67.00;;;;;;5106732;28;20054;-66
2021/09/01 08:00:57;;;;;;;36.90;21.27;;;20.40;67.20;;;;;;5100643;28;20023;-66
2021/09/01 08:03:24;;;;;;;40.00;23.67;;;20.30;67.80;;;;;;5106303;28;20051;-64
2021/09/01 08:05:52;;;;;;;39.17;24.10;;;20.30;68.00;;;;;;5098676;28;20106;-64
2021/09/01 08:08:19;;;;;;;33.78;21.08;;;20.30;68.20;;;;;;5106114;28;20031;-64
2021/09/01 08:10:46;;;;;;;35.40;22.75;;;20.20;68.50;;;;;;5106402;28;20060;-66
2021/09/01 08:13:32;;;;;;;31.58;18.92;;;20.20;69.00;;;;;;5107577;28;20027;-62
2021/09/01 08:16:02;;;;;;;32.17;18.45;;;20.20;69.10;;;;;;5098750;28;20065;-60
2021/09/01 08:18:30;;;;;;;35.20;20.42;;;20.10;69.60;;;;;;5102710;28;20023;-64
2021/09/01 08:20:57;;;;;;;28.50;15.15;;;20.00;69.80;;;;;;5104309;28;20108;-68
2021/09/01 08:23:25;;;;;;;35.45;21.08;;;20.10;69.80;;;;;;5096974;28;20642;-64
2021/09/01 08:25:52;;;;;;;37.03;21.42;;;20.00;70.00;;;;;;5102315;28;20047;-63
2021/09/01 08:28:19;;;;;;;28.38;18.23;;;20.00;69.80;;;;;;5106494;28;20095;-65
2021/09/01 08:30:47;;;;;;;29.65;17.23;;;20.00;70.40;;;;;;5088063;28;20501;-64
2021/09/01 08:33:14;;;;;;;29.67;17.90;;;19.90;71.00;;;;;;5104077;28;20019;-64
2021/09/01 08:35:42;;;;;;;30.98;18.92;;;19.90;70.70;;;;;;5097587;28;20073;-68
2021/09/01 08:38:09;;;;;;;24.00;14.25;;;19.80;71.80;;;;;;5088393;28;20015;-71
2021/09/01 08:40:37;;;;;;;34.00;20.42;;;19.80;72.20;;;;;;5108048;28;20054;-68
2021/09/01 08:43:06;;;;;;;32.92;21.38;;;19.70;70.80;;;;;;5106219;28;20450;-65
2021/09/01 08:45:34;;;;;;;27.80;17.60;;;19.60;70.90;;;;;;5096508;28;20027;-66
2021/09/01 08:48:02;;;;;;;21.42;14.32;;;19.60;71.70;;;;;;5107334;28;20024;-60
2021/09/01 08:50:30;;;;;;;23.42;14.48;;;19.60;72.20;;;;;;5106621;28;20101;-65
2021/09/01 08:52:58;;;;;;;27.40;17.98;;;19.60;72.50;;;;;;5104189;28;20392;-67
2021/09/01 08:55:25;;;;;;;31.20;18.38;;;19.60;71.70;;;;;;5105692;28;20481;-68
2021/09/01 08:57:52;;;;;;;26.75;15.60;;;19.50;71.70;;;;;;5110881;28;20051;-67
2021/09/01 09:00:20;;;;;;;25.92;17.80;;;19.50;72.90;;;;;;5111108;28;20103;-67
2021/09/01 09:02:55;;;;;;;26.27;15.82;;;19.40;71.80;;;;;;5105871;28;20541;-66
2021/09/01 09:05:40;;;;;;;30.77;19.15;;;19.40;72.50;;;;;;5094192;28;20480;-62
2021/09/01 09:08:15;;;;;;;31.55;18.48;;;19.40;72.70;;;;;;5090607;28;20145;-68
2021/09/01 09:10:48;;;;;;;25.38;14.68;;;19.30;72.80;;;;;;5092061;28;20035;-66
2021/09/01 09:13:28;;;;;;;19.02;12.45;;;19.40;74.30;;;;;;5105459;28;20030;-66
2021/09/01 09:16:08;;;;;;;26.75;16.80;;;19.30;73.30;;;;;;5081419;28;20062;-66
2021/09/01 09:18:40;;;;;;;21.23;15.35;;;19.30;72.40;;;;;;5098781;28;20043;-69
2021/09/01 09:21:08;;;;;;;;;;;19.30;73.80;;;;;;5109579;28;20028;-63
2021/09/01 09:23:35;;;;;;;22.42;14.73;;;19.30;76.10;;;;;;5109153;28;20445;-67
2021/09/01 09:26:21;;;;;;;15.43;10.15;;;19.30;72.90;;;;;;5098868;28;20107;-65
2021/09/01 09:29:08;;;;;;;21.88;13.45;;;19.30;75.90;;;;;;5109878;28;20440;-69
2021/09/01 09:31:37;;;;;;;27.00;16.17;;;19.20;73.70;;;;;;5100362;28;20012;-68
2021/09/01 09:34:13;;;;;;;24.85;15.80;;;19.20;74.00;;;;;;5110423;28;20085;-67
2021/09/01 09:36:59;;;;;;;18.08;11.40;;;19.20;75.60;;;;;;5103198;28;20090;-65
2021/09/01 09:39:46;;;;;;;15.82;10.93;;;19.20;77.70;;;;;;5100217;28;20060;-65
2021/09/01 09:42:40;;;;;;;16.63;10.15;;;19.20;77.50;;;;;;5106550;28;20078;-67
2021/09/01 09:45:26;;;;;;;18.25;10.40;;;19.20;77.40;;;;;;5100653;28;20072;-63
2021/09/01 09:47:56;;;;;;;21.10;13.05;;;19.20;77.40;;;;;;5098370;28;20030;-66
2021/09/01 09:50:23;;;;;;;24.85;15.93;;;19.10;77.00;;;;;;5093740;28;20035;-65
2021/09/01 09:52:51;;;;;;;24.33;15.32;;;19.10;74.80;;;;;;5098901;28;20440;-65
2021/09/01 09:55:25;;;;;;;15.88;10.90;;;19.00;73.60;;;;;;5095454;28;20386;-68
2021/09/01 09:58:10;;;;;;;23.33;14.50;;;19.00;77.50;;;;;;5106361;28;20038;-69
2021/09/01 10:00:37;;;;;;;17.55;10.80;;;19.00;76.30;;;;;;5105685;28;20466;-66
2021/09/01 10:03:08;;;;;;;22.25;13.43;;;19.00;76.40;;;;;;5108034;28;20074;-68
2021/09/01 10:05:35;;;;;;;19.05;12.00;;;19.00;75.40;;;;;;5103153;28;20062;-72
2021/09/01 10:08:03;;;;;;;21.95;11.18;;;19.00;75.30;;;;;;5081832;28;20436;-68
2021/09/01 10:10:30;;;;;;;16.75;10.52;;;19.00;77.30;;;;;;5109599;28;20084;-68
2021/09/01 10:12:58;;;;;;;21.83;11.95;;;19.00;75.70;;;;;;5090428;28;20076;-64
2021/09/01 10:15:29;;;;;;;17.27;11.57;;;18.90;78.60;;;;;;5085075;28;20024;-65
2021/09/01 10:18:08;;;;;;;20.95;14.32;;;18.90;77.40;;;;;;5110538;28;20027;-62
2021/09/01 10:20:42;;;;;;;16.60;9.93;;;18.90;75.10;;;;;;5099461;28;20423;-66
2021/09/01 10:23:10;;;;;;;20.13;11.70;;;18.80;76.80;;;;;;5101207;28;20398;-62
2021/09/01 10:25:49;;;;;;;18.38;12.55;;;18.80;78.20;;;;;;5100465;28;20028;-64
2021/09/01 10:28:48;;;;;;;18.85;12.60;;;18.80;74.90;;;;;;5110321;28;20080;-66
2021/09/01 10:31:18;;;;;;;15.77;10.93;;;18.80;75.30;;;;;;5098749;28;20371;-70
2021/09/01 10:33:50;;;;;;;19.42;10.02;;;18.80;78.20;;;;;;5076031;28;20165;-72
2021/09/01 10:36:24;;;;;;;17.75;12.30;;;18.80;76.60;;;;;;5079147;28;20103;-66
2021/09/01 10:39:17;;;;;;;16.55;11.93;;;18.80;74.80;;;;;;5104810;28;20085;-67
2021/09/01 10:41:45;;;;;;;15.70;10.18;;;18.70;74.60;;;;;;5103584;28;20439;-71
2021/09/01 10:44:12;;;;;;;18.75;12.05;;;18.60;77.70;;;;;;5087578;28;20516;-68
2021/09/01 10:46:54;;;;;;;16.55;11.55;;;18.70;75.30;;;;;;5097363;28;20031;-67
2021/09/01 10:50:10;;;;;;;20.17;12.57;;;18.60;74.90;;;;;;5104164;28;20426;-65
2021/09/01 10:53:24;;;;;;;18.27;11.68;;;18.60;75.90;;;;;;5054677;28;20142;-71
2021/09/01 10:56:13;;;;;;;17.85;11.13;;;18.60;75.80;;;;;;5020295;28;20029;-67
2021/09/01 10:58:41;;;;;;;15.55;10.82;;;18.60;76.90;;;;;;5022132;28;20030;-70
2021/09/01 11:01:22;;;;;;;20.63;11.20;;;18.60;76.90;;;;;;5079587;28;20032;-66
2021/09/01 11:04:04;;;;;;;15.35;10.20;;;18.60;77.50;;;;;;5105050;28;20039;-70
2021/09/01 11:06:39;;;;;;;17.27;12.10;;;18.60;75.90;;;;;;5104437;28;20047;-69
2021/09/01 11:09:09;;;;;;;18.25;11.25;;;18.60;75.40;;;;;;5109339;28;20016;-64
2021/09/01 11:11:41;;;;;;;17.40;10.77;;;18.60;75.80;;;;;;5108574;28;20202;-66
2021/09/01 11:14:09;;;;;;;21.27;12.13;;;18.60;77.70;;;;;;5087183;28;20081;-66
2021/09/01 11:16:45;;;;;;;13.20;9.80;;;18.50;75.00;;;;;;5089454;28;20038;-62
2021/09/01 11:19:13;;;;;;;14.35;10.05;;;18.50;77.80;;;;;;5090038;28;20027;-64
2021/09/01 11:21:46;;;;;;;13.55;9.38;;;18.50;75.70;;;;;;5089646;28;20020;-65
2021/09/01 11:24:19;;;;;;;14.93;9.30;;;18.40;75.20;;;;;;5089073;28;20025;-60
2021/09/01 11:26:53;;;;;;;17.23;9.82;;;18.40;75.20;;;;;;5089191;28;20031;-62
2021/09/01 11:29:29;;;;;;;15.55;10.32;;;18.40;76.20;;;;;;5089159;28;20020;-65
2021/09/01 11:31:56;;;;;;;14.73;10.07;;;18.40;75.20;;;;;;5089011;28;20052;-66
2021/09/01 11:34:24;;;;;;;13.18;8.63;;;18.30;75.40;;;;;;5088940;28;20110;-66
2021/09/01 11:36:52;;;;;;;12.63;8.35;;;18.40;79.00;;;;;;5070494;28;20069;-65
2021/09/01 11:39:20;;;;;;;14.80;8.65;;;18.30;76.20;;;;;;5088363;28;20030;-63
2021/09/01 11:41:56;;;;;;;12.95;7.97;;;18.30;75.70;;;;;;5087543;28;20848;-61
2021/09/01 11:44:23;;;;;;;13.73;9.32;;;18.30;78.70;;;;;;5070468;28;20403;-61
2021/09/01 11:46:54;;;;;;;14.52;8.93;;;18.20;75.40;;;;;;5088397;28;20092;-66
2021/09/01 11:49:22;;;;;;;12.25;9.02;;;18.30;76.00;;;;;;5088824;28;20077;-60
2021/09/01 11:51:50;;;;;;;15.48;9.07;;;18.20;75.10;;;;;;5070092;28;20321;-62
2021/09/01 11:54:18;;;;;;;13.63;8.05;;;18.20;76.40;;;;;;5089474;28;20043;-60
2021/09/01 11:56:46;;;;;;;13.23;8.52;;;18.20;76.30;;;;;;5088070;28;20575;-61
2021/09/01 11:59:15;;;;;;;13.57;9.45;;;18.20;77.40;;;;;;5093542;28;20111;-67
2021/09/01 12:02:03;;;;;;;16.15;9.55;;;18.10;76.30;;;;;;5102553;28;20389;-63
2021/09/01 12:04:32;;;;;;;16.02;8.48;;;18.10;76.40;;;;;;5109926;28;20417;-67
2021/09/01 12:07:00;;;;;;;12.77;7.85;;;18.20;78.40;;;;;;5112263;28;20486;-64
2021/09/01 12:09:28;;;;;;;10.57;7.55;;;18.20;78.10;;;;;;5106400;28;20032;-61
2021/09/01 12:11:57;;;;;;;13.00;7.90;;;18.20;77.60;;;;;;5107274;28;20024;-67
2021/09/01 12:14:34;;;;;;;11.88;8.30;;;18.20;78.50;;;;;;5112051;28;20019;-65
2021/09/01 12:17:22;;;;;;;15.75;7.85;;;18.10;77.00;;;;;;5107783;28;20020;-71
2021/09/01 12:19:58;;;;;;;13.30;7.53;;;18.20;78.20;;;;;;5102282;28;20073;-63
2021/09/01 12:22:40;;;;;;;11.77;8.18;;;18.10;78.00;;;;;;5102376;28;20090;-62
2021/09/01 12:25:08;;;;;;;;;;;18.10;76.40;;;;;;5090029;28;20040;-62
2021/09/01 12:27:37;;;;;;;16.25;8.15;;;18.10;76.50;;;;;;5113847;28;19904;-62
2021/09/01 12:30:09;;;;;;;11.30;7.60;;;18.10;78.20;;;;;;5114534;28;20031;-63
2021/09/01 12:32:37;;;;;;;11.10;8.07;;;18.10;77.60;;;;;;5104611;28;20347;-62
2021/09/01 12:35:09;;;;;;;12.00;7.93;;;18.10;77.10;;;;;;5115914;28;20489;-64
2021/09/01 12:37:38;;;;;;;12.82;8.00;;;18.10;77.30;;;;;;5115953;28;20394;-65
2021/09/01 12:40:12;;;;;;;11.50;7.43;;;18.10;76.70;;;;;;5113549;28;20082;-67
2021/09/01 12:42:43;;;;;;;12.27;7.53;;;18.00;76.80;;;;;;5106214;28;20044;-67
2021/09/01 12:45:23;;;;;;;13.17;8.23;;;18.00;76.70;;;;;;5116266;28;20040;-67